sensor_id;sensor_type;location;lat;lon;timestamp;P1;durP1;ratioP1;P2;durP2;ratioP2
31126;SDS011;17775;57.948;12.514;2023-11-19T00:02:12;0.52;;;0.43;;
31126;SDS011;17775;57.948;12.514;2023-11-19T00:04:39;0.57;;;0.55;;
31126;SDS011;17775;57.948;12.514;2023-11-19T00:07:05;0.77;;;0.47;;
31126;SDS011;17775;57.948;12.514;2023-11-19T00:09:33;1.00;;;0.63;;
31126;SDS011;17775;57.948;12.514;2023-11-19T00:12:06;0.60;;;0.50;;
31126;SDS011;17775;57.948;12.514;2023-11-19T00:14:33;0.40;;;0.40;;
31126;SDS011;17775;57.948;12.514;2023-11-19T00:17:00;0.47;;;0.43;;
31126;SDS011;17775;57.948;12.514;2023-11-19T00:19:27;0.30;;;0.30;;
31126;SDS011;17775;57.948;12.514;2023-11-19T00:21:53;0.95;;;0.50;;
31126;SDS011;17775;57.948;12.514;2023-11-19T00:24:20;0.60;;;0.50;;
31126;SDS011;17775;57.948;12.514;2023-11-19T00:26:46;0.50;;;0.40;;
31126;SDS011;17775;57.948;12.514;2023-11-19T00:29:13;1.05;;;0.60;;
31126;SDS011;17775;57.948;12.514;2023-11-19T00:31:40;0.77;;;0.70;;
31126;SDS011;17775;57.948;12.514;2023-11-19T00:34:06;0.60;;;0.52;;
31126;SDS011;17775;57.948;12.514;2023-11-19T00:36:36;0.82;;;0.52;;
31126;SDS011;17775;57.948;12.514;2023-11-19T00:39:02;0.40;;;0.40;;
31126;SDS011;17775;57.948;12.514;2023-11-19T00:41:29;0.77;;;0.60;;
31126;SDS011;17775;57.948;12.514;2023-11-19T00:43:55;0.50;;;0.50;;
31126;SDS011;17775;57.948;12.514;2023-11-19T00:46:21;0.73;;;0.40;;
31126;SDS011;17775;57.948;12.514;2023-11-19T00:48:48;0.60;;;0.50;;
31126;SDS011;17775;57.948;12.514;2023-11-19T00:51:15;0.57;;;0.50;;
31126;SDS011;17775;57.948;12.514;2023-11-19T00:53:41;0.40;;;0.40;;
31126;SDS011;17775;57.948;12.514;2023-11-19T00:56:10;0.52;;;0.40;;
31126;SDS011;17775;57.948;12.514;2023-11-19T00:58:38;0.40;;;0.40;;
31126;SDS011;17775;57.948;12.514;2023-11-19T01:01:05;0.50;;;0.50;;
31126;SDS011;17775;57.948;12.514;2023-11-19T01:03:31;0.55;;;0.50;;
31126;SDS011;17775;57.948;12.514;2023-11-19T01:05:59;0.40;;;0.40;;
31126;SDS011;17775;57.948;12.514;2023-11-19T01:08:27;0.52;;;0.47;;
31126;SDS011;17775;57.948;12.514;2023-11-19T01:10:55;0.50;;;0.50;;
31126;SDS011;17775;57.948;12.514;2023-11-19T01:13:21;0.40;;;0.40;;
31126;SDS011;17775;57.948;12.514;2023-11-19T01:15:47;0.47;;;0.47;;
31126;SDS011;17775;57.948;12.514;2023-11-19T01:18:14;0.70;;;0.50;;
31126;SDS011;17775;57.948;12.514;2023-11-19T01:20:41;0.73;;;0.50;;
31126;SDS011;17775;57.948;12.514;2023-11-19T01:23:07;0.40;;;0.40;;
31126;SDS011;17775;57.948;12.514;2023-11-19T01:25:34;0.85;;;0.52;;
31126;SDS011;17775;57.948;12.514;2023-11-19T01:28:01;0.50;;;0.45;;
31126;SDS011;17775;57.948;12.514;2023-11-19T01:30:30;0.45;;;0.40;;
31126;SDS011;17775;57.948;12.514;2023-11-19T01:32:57;0.40;;;0.40;;
31126;SDS011;17775;57.948;12.514;2023-11-19T01:35:23;0.40;;;0.40;;
31126;SDS011;17775;57.948;12.514;2023-11-19T01:37:53;0.45;;;0.40;;
31126;SDS011;17775;57.948;12.514;2023-11-19T01:40:20;0.40;;;0.40;;
31126;SDS011;17775;57.948;12.514;2023-11-19T01:42:46;0.43;;;0.40;;
31126;SDS011;17775;57.948;12.514;2023-11-19T01:45:18;0.40;;;0.40;;
31126;SDS011;17775;57.948;12.514;2023-11-19T01:47:47;0.43;;;0.43;;
31126;SDS011;17775;57.948;12.514;2023-11-19T01:50:14;0.50;;;0.40;;
31126;SDS011;17775;57.948;12.514;2023-11-19T01:52:40;0.55;;;0.50;;
31126;SDS011;17775;57.948;12.514;2023-11-19T01:55:07;0.47;;;0.40;;
31126;SDS011;17775;57.948;12.514;2023-11-19T01:57:35;0.85;;;0.55;;
31126;SDS011;17775;57.948;12.514;2023-11-19T02:00:04;0.40;;;0.30;;
31126;SDS011;17775;57.948;12.514;2023-11-19T02:02:32;0.30;;;0.30;;
31126;SDS011;17775;57.948;12.514;2023-11-19T02:04:59;0.30;;;0.30;;
31126;SDS011;17775;57.948;12.514;2023-11-19T02:07:26;0.40;;;0.40;;
31126;SDS011;17775;57.948;12.514;2023-11-19T02:09:53;0.43;;;0.43;;
31126;SDS011;17775;57.948;12.514;2023-11-19T02:12:19;0.50;;;0.50;;
31126;SDS011;17775;57.948;12.514;2023-11-19T02:14:46;0.40;;;0.40;;
31126;SDS011;17775;57.948;12.514;2023-11-19T02:17:24;0.52;;;0.52;;
31126;SDS011;17775;57.948;12.514;2023-11-19T02:19:51;0.50;;;0.40;;
31126;SDS011;17775;57.948;12.514;2023-11-19T02:22:20;0.63;;;0.50;;
31126;SDS011;17775;57.948;12.514;2023-11-19T02:24:47;0.55;;;0.55;;
31126;SDS011;17775;57.948;12.514;2023-11-19T02:27:16;0.73;;;0.60;;
31126;SDS011;17775;57.948;12.514;2023-11-19T02:29:46;0.80;;;0.45;;
31126;SDS011;17775;57.948;12.514;2023-11-19T02:32:14;1.05;;;0.60;;
31126;SDS011;17775;57.948;12.514;2023-11-19T02:34:42;0.50;;;0.50;;
31126;SDS011;17775;57.948;12.514;2023-11-19T02:37:08;0.60;;;0.50;;
31126;SDS011;17775;57.948;12.514;2023-11-19T02:39:36;0.50;;;0.50;;
31126;SDS011;17775;57.948;12.514;2023-11-19T02:42:03;0.30;;;0.30;;
31126;SDS011;17775;57.948;12.514;2023-11-19T02:44:29;0.47;;;0.40;;
31126;SDS011;17775;57.948;12.514;2023-11-19T02:46:56;0.40;;;0.40;;
31126;SDS011;17775;57.948;12.514;2023-11-19T02:49:25;0.52;;;0.40;;
31126;SDS011;17775;57.948;12.514;2023-11-19T02:51:52;0.85;;;0.60;;
31126;SDS011;17775;57.948;12.514;2023-11-19T02:54:18;0.50;;;0.40;;
31126;SDS011;17775;57.948;12.514;2023-11-19T02:56:47;0.50;;;0.47;;
31126;SDS011;17775;57.948;12.514;2023-11-19T02:59:14;0.52;;;0.40;;
31126;SDS011;17775;57.948;12.514;2023-11-19T03:01:53;0.80;;;0.50;;
31126;SDS011;17775;57.948;12.514;2023-11-19T03:04:20;0.75;;;0.60;;
31126;SDS011;17775;57.948;12.514;2023-11-19T03:06:47;0.47;;;0.40;;
31126;SDS011;17775;57.948;12.514;2023-11-19T03:09:13;0.40;;;0.40;;
31126;SDS011;17775;57.948;12.514;2023-11-19T03:11:40;0.80;;;0.70;;
31126;SDS011;17775;57.948;12.514;2023-11-19T03:14:06;0.40;;;0.40;;
31126;SDS011;17775;57.948;12.514;2023-11-19T03:16:33;0.32;;;0.32;;
31126;SDS011;17775;57.948;12.514;2023-11-19T03:19:00;0.40;;;0.40;;
31126;SDS011;17775;57.948;12.514;2023-11-19T03:21:28;1.17;;;0.52;;
31126;SDS011;17775;57.948;12.514;2023-11-19T03:23:54;0.75;;;0.60;;
31126;SDS011;17775;57.948;12.514;2023-11-19T03:26:21;0.40;;;0.40;;
31126;SDS011;17775;57.948;12.514;2023-11-19T03:28:48;0.45;;;0.43;;
31126;SDS011;17775;57.948;12.514;2023-11-19T03:31:14;0.50;;;0.50;;
31126;SDS011;17775;57.948;12.514;2023-11-19T03:33:41;0.82;;;0.60;;
31126;SDS011;17775;57.948;12.514;2023-11-19T03:36:07;0.40;;;0.40;;
31126;SDS011;17775;57.948;12.514;2023-11-19T03:38:35;0.70;;;0.47;;
31126;SDS011;17775;57.948;12.514;2023-11-19T03:41:12;0.70;;;0.60;;
31126;SDS011;17775;57.948;12.514;2023-11-19T03:43:41;1.00;;;0.65;;
31126;SDS011;17775;57.948;12.514;2023-11-19T03:46:17;1.00;;;0.60;;
31126;SDS011;17775;57.948;12.514;2023-11-19T03:48:44;0.50;;;0.45;;
31126;SDS011;17775;57.948;12.514;2023-11-19T03:51:11;0.60;;;0.50;;
31126;SDS011;17775;57.948;12.514;2023-11-19T03:53:43;0.60;;;0.50;;
31126;SDS011;17775;57.948;12.514;2023-11-19T03:56:10;0.55;;;0.45;;
31126;SDS011;17775;57.948;12.514;2023-11-19T03:58:37;0.40;;;0.40;;
31126;SDS011;17775;57.948;12.514;2023-11-19T04:01:04;0.57;;;0.50;;
31126;SDS011;17775;57.948;12.514;2023-11-19T04:03:31;0.77;;;0.60;;
31126;SDS011;17775;57.948;12.514;2023-11-19T04:05:57;0.63;;;0.50;;
31126;SDS011;17775;57.948;12.514;2023-11-19T04:08:25;0.50;;;0.50;;
31126;SDS011;17775;57.948;12.514;2023-11-19T04:10:55;0.70;;;0.57;;
31126;SDS011;17775;57.948;12.514;2023-11-19T04:13:21;0.47;;;0.40;;
31126;SDS011;17775;57.948;12.514;2023-11-19T04:15:49;0.30;;;0.30;;
31126;SDS011;17775;57.948;12.514;2023-11-19T04:18:15;0.77;;;0.50;;
31126;SDS011;17775;57.948;12.514;2023-11-19T04:20:42;0.43;;;0.40;;
31126;SDS011;17775;57.948;12.514;2023-11-19T04:23:08;0.57;;;0.47;;
31126;SDS011;17775;57.948;12.514;2023-11-19T04:25:35;0.60;;;0.40;;
31126;SDS011;17775;57.948;12.514;2023-11-19T04:28:04;0.50;;;0.40;;
31126;SDS011;17775;57.948;12.514;2023-11-19T04:30:30;0.93;;;0.50;;
31126;SDS011;17775;57.948;12.514;2023-11-19T04:32:58;0.75;;;0.40;;
31126;SDS011;17775;57.948;12.514;2023-11-19T04:35:24;1.08;;;0.50;;
31126;SDS011;17775;57.948;12.514;2023-11-19T04:37:52;0.70;;;0.45;;
31126;SDS011;17775;57.948;12.514;2023-11-19T04:40:18;0.65;;;0.45;;
31126;SDS011;17775;57.948;12.514;2023-11-19T04:42:45;0.40;;;0.40;;
31126;SDS011;17775;57.948;12.514;2023-11-19T04:45:14;0.70;;;0.50;;
31126;SDS011;17775;57.948;12.514;2023-11-19T04:47:40;0.63;;;0.45;;
31126;SDS011;17775;57.948;12.514;2023-11-19T04:50:06;0.77;;;0.35;;
31126;SDS011;17775;57.948;12.514;2023-11-19T04:52:34;0.40;;;0.40;;
31126;SDS011;17775;57.948;12.514;2023-11-19T04:55:00;0.63;;;0.50;;
31126;SDS011;17775;57.948;12.514;2023-11-19T04:57:27;0.75;;;0.50;;
31126;SDS011;17775;57.948;12.514;2023-11-19T04:59:53;0.75;;;0.50;;
31126;SDS011;17775;57.948;12.514;2023-11-19T05:02:20;0.60;;;0.40;;
31126;SDS011;17775;57.948;12.514;2023-11-19T05:04:46;0.73;;;0.65;;
31126;SDS011;17775;57.948;12.514;2023-11-19T05:07:15;1.00;;;0.70;;
31126;SDS011;17775;57.948;12.514;2023-11-19T05:09:42;0.95;;;0.60;;
31126;SDS011;17775;57.948;12.514;2023-11-19T05:12:09;1.15;;;0.80;;
31126;SDS011;17775;57.948;12.514;2023-11-19T05:14:38;0.82;;;0.60;;
31126;SDS011;17775;57.948;12.514;2023-11-19T05:17:04;1.27;;;0.70;;
31126;SDS011;17775;57.948;12.514;2023-11-19T05:19:31;1.00;;;0.70;;
31126;SDS011;17775;57.948;12.514;2023-11-19T05:21:57;0.90;;;0.60;;
31126;SDS011;17775;57.948;12.514;2023-11-19T05:24:24;0.60;;;0.50;;
31126;SDS011;17775;57.948;12.514;2023-11-19T05:26:51;1.05;;;0.60;;
31126;SDS011;17775;57.948;12.514;2023-11-19T05:29:18;0.55;;;0.50;;
31126;SDS011;17775;57.948;12.514;2023-11-19T05:31:44;0.57;;;0.52;;
31126;SDS011;17775;57.948;12.514;2023-11-19T05:34:10;1.10;;;0.70;;
31126;SDS011;17775;57.948;12.514;2023-11-19T05:36:38;0.60;;;0.50;;
31126;SDS011;17775;57.948;12.514;2023-11-19T05:39:06;0.73;;;0.50;;
31126;SDS011;17775;57.948;12.514;2023-11-19T05:41:32;0.80;;;0.60;;
31126;SDS011;17775;57.948;12.514;2023-11-19T05:43:58;0.60;;;0.57;;
31126;SDS011;17775;57.948;12.514;2023-11-19T05:46:25;0.65;;;0.50;;
31126;SDS011;17775;57.948;12.514;2023-11-19T05:48:53;0.60;;;0.60;;
31126;SDS011;17775;57.948;12.514;2023-11-19T05:51:20;0.80;;;0.60;;
31126;SDS011;17775;57.948;12.514;2023-11-19T05:53:46;0.47;;;0.40;;
31126;SDS011;17775;57.948;12.514;2023-11-19T05:56:13;0.70;;;0.47;;
31126;SDS011;17775;57.948;12.514;2023-11-19T05:58:42;0.80;;;0.60;;
31126;SDS011;17775;57.948;12.514;2023-11-19T06:01:10;1.13;;;0.52;;
31126;SDS011;17775;57.948;12.514;2023-11-19T06:03:37;0.90;;;0.63;;
31126;SDS011;17775;57.948;12.514;2023-11-19T06:06:04;1.20;;;0.93;;
31126;SDS011;17775;57.948;12.514;2023-11-19T06:08:31;0.77;;;0.65;;
31126;SDS011;17775;57.948;12.514;2023-11-19T06:10:58;0.90;;;0.60;;
31126;SDS011;17775;57.948;12.514;2023-11-19T06:13:25;0.88;;;0.60;;
31126;SDS011;17775;57.948;12.514;2023-11-19T06:15:52;0.73;;;0.60;;
31126;SDS011;17775;57.948;12.514;2023-11-19T06:18:19;0.50;;;0.50;;
31126;SDS011;17775;57.948;12.514;2023-11-19T06:20:47;0.63;;;0.50;;
31126;SDS011;17775;57.948;12.514;2023-11-19T06:23:13;0.50;;;0.47;;
31126;SDS011;17775;57.948;12.514;2023-11-19T06:25:39;1.20;;;0.60;;
31126;SDS011;17775;57.948;12.514;2023-11-19T06:28:06;0.57;;;0.50;;
31126;SDS011;17775;57.948;12.514;2023-11-19T06:30:32;0.47;;;0.43;;
31126;SDS011;17775;57.948;12.514;2023-11-19T06:32:59;0.70;;;0.50;;
31126;SDS011;17775;57.948;12.514;2023-11-19T06:35:28;0.55;;;0.40;;
31126;SDS011;17775;57.948;12.514;2023-11-19T06:38:02;0.63;;;0.50;;
31126;SDS011;17775;57.948;12.514;2023-11-19T06:40:31;0.57;;;0.45;;
31126;SDS011;17775;57.948;12.514;2023-11-19T06:42:57;0.80;;;0.68;;
31126;SDS011;17775;57.948;12.514;2023-11-19T06:45:24;1.00;;;0.65;;
31126;SDS011;17775;57.948;12.514;2023-11-19T06:47:50;0.63;;;0.50;;
31126;SDS011;17775;57.948;12.514;2023-11-19T06:50:17;0.65;;;0.50;;
31126;SDS011;17775;57.948;12.514;2023-11-19T06:52:45;0.70;;;0.60;;
31126;SDS011;17775;57.948;12.514;2023-11-19T06:55:12;0.65;;;0.50;;
31126;SDS011;17775;57.948;12.514;2023-11-19T06:57:38;0.63;;;0.60;;
31126;SDS011;17775;57.948;12.514;2023-11-19T07:00:05;0.75;;;0.60;;
31126;SDS011;17775;57.948;12.514;2023-11-19T07:02:32;0.95;;;0.60;;
31126;SDS011;17775;57.948;12.514;2023-11-19T07:04:59;0.50;;;0.50;;
31126;SDS011;17775;57.948;12.514;2023-11-19T07:07:26;1.58;;;0.90;;
31126;SDS011;17775;57.948;12.514;2023-11-19T07:09:52;0.63;;;0.50;;
31126;SDS011;17775;57.948;12.514;2023-11-19T07:12:19;1.40;;;0.80;;
31126;SDS011;17775;57.948;12.514;2023-11-19T07:14:46;0.85;;;0.60;;
31126;SDS011;17775;57.948;12.514;2023-11-19T07:17:12;0.70;;;0.50;;
31126;SDS011;17775;57.948;12.514;2023-11-19T07:19:39;0.90;;;0.60;;
31126;SDS011;17775;57.948;12.514;2023-11-19T07:22:06;0.60;;;0.60;;
31126;SDS011;17775;57.948;12.514;2023-11-19T07:24:36;1.05;;;0.60;;
31126;SDS011;17775;57.948;12.514;2023-11-19T07:27:04;0.80;;;0.63;;
31126;SDS011;17775;57.948;12.514;2023-11-19T07:29:31;1.08;;;0.70;;
31126;SDS011;17775;57.948;12.514;2023-11-19T07:31:58;0.60;;;0.52;;
31126;SDS011;17775;57.948;12.514;2023-11-19T07:34:24;0.68;;;0.50;;
31126;SDS011;17775;57.948;12.514;2023-11-19T07:36:51;1.38;;;0.85;;
31126;SDS011;17775;57.948;12.514;2023-11-19T07:39:18;0.90;;;0.70;;
31126;SDS011;17775;57.948;12.514;2023-11-19T07:41:47;1.10;;;0.90;;
31126;SDS011;17775;57.948;12.514;2023-11-19T07:44:13;1.25;;;0.85;;
31126;SDS011;17775;57.948;12.514;2023-11-19T07:46:40;1.60;;;1.10;;
31126;SDS011;17775;57.948;12.514;2023-11-19T07:49:08;1.83;;;1.00;;
31126;SDS011;17775;57.948;12.514;2023-11-19T07:51:36;1.85;;;1.02;;
31126;SDS011;17775;57.948;12.514;2023-11-19T07:54:02;0.80;;;0.75;;
31126;SDS011;17775;57.948;12.514;2023-11-19T07:56:30;1.23;;;1.00;;
31126;SDS011;17775;57.948;12.514;2023-11-19T07:58:56;1.27;;;0.90;;
31126;SDS011;17775;57.948;12.514;2023-11-19T08:01:23;1.33;;;0.98;;
31126;SDS011;17775;57.948;12.514;2023-11-19T08:03:49;1.55;;;1.02;;
31126;SDS011;17775;57.948;12.514;2023-11-19T08:06:19;0.95;;;0.73;;
31126;SDS011;17775;57.948;12.514;2023-11-19T08:08:45;1.75;;;0.88;;
31126;SDS011;17775;57.948;12.514;2023-11-19T08:11:14;1.15;;;0.73;;
31126;SDS011;17775;57.948;12.514;2023-11-19T08:13:41;1.48;;;0.95;;
31126;SDS011;17775;57.948;12.514;2023-11-19T08:16:08;1.13;;;0.80;;
31126;SDS011;17775;57.948;12.514;2023-11-19T08:18:36;1.92;;;1.25;;
31126;SDS011;17775;57.948;12.514;2023-11-19T08:21:02;1.63;;;1.00;;
31126;SDS011;17775;57.948;12.514;2023-11-19T08:23:31;1.55;;;1.10;;
31126;SDS011;17775;57.948;12.514;2023-11-19T08:25:57;1.33;;;0.90;;
31126;SDS011;17775;57.948;12.514;2023-11-19T08:28:23;1.35;;;1.00;;
31126;SDS011;17775;57.948;12.514;2023-11-19T08:30:50;2.20;;;1.13;;
31126;SDS011;17775;57.948;12.514;2023-11-19T08:33:20;1.60;;;0.90;;
31126;SDS011;17775;57.948;12.514;2023-11-19T08:35:48;1.95;;;1.05;;
31126;SDS011;17775;57.948;12.514;2023-11-19T08:38:15;1.10;;;0.80;;
31126;SDS011;17775;57.948;12.514;2023-11-19T08:40:57;1.48;;;0.88;;
31126;SDS011;17775;57.948;12.514;2023-11-19T08:43:27;1.13;;;0.70;;
31126;SDS011;17775;57.948;12.514;2023-11-19T08:45:54;1.23;;;0.85;;
31126;SDS011;17775;57.948;12.514;2023-11-19T08:48:20;1.30;;;0.90;;
31126;SDS011;17775;57.948;12.514;2023-11-19T08:50:47;1.73;;;1.05;;
31126;SDS011;17775;57.948;12.514;2023-11-19T08:53:14;0.95;;;0.70;;
31126;SDS011;17775;57.948;12.514;2023-11-19T08:55:40;1.05;;;0.80;;
31126;SDS011;17775;57.948;12.514;2023-11-19T08:58:07;1.17;;;0.70;;
31126;SDS011;17775;57.948;12.514;2023-11-19T09:00:33;0.90;;;0.70;;
31126;SDS011;17775;57.948;12.514;2023-11-19T09:03:00;1.40;;;1.13;;
31126;SDS011;17775;57.948;12.514;2023-11-19T09:05:26;1.33;;;1.00;;
31126;SDS011;17775;57.948;12.514;2023-11-19T09:07:53;1.42;;;1.13;;
31126;SDS011;17775;57.948;12.514;2023-11-19T09:10:21;1.25;;;1.00;;
31126;SDS011;17775;57.948;12.514;2023-11-19T09:12:47;1.20;;;0.90;;
31126;SDS011;17775;57.948;12.514;2023-11-19T09:15:14;0.98;;;0.65;;
31126;SDS011;17775;57.948;12.514;2023-11-19T09:17:44;1.38;;;0.90;;
31126;SDS011;17775;57.948;12.514;2023-11-19T09:20:12;1.30;;;0.98;;
31126;SDS011;17775;57.948;12.514;2023-11-19T09:22:41;1.67;;;1.00;;
31126;SDS011;17775;57.948;12.514;2023-11-19T09:25:08;1.35;;;1.02;;
31126;SDS011;17775;57.948;12.514;2023-11-19T09:27:34;0.80;;;0.80;;
31126;SDS011;17775;57.948;12.514;2023-11-19T09:30:01;1.45;;;1.15;;
31126;SDS011;17775;57.948;12.514;2023-11-19T09:32:28;1.67;;;0.98;;
31126;SDS011;17775;57.948;12.514;2023-11-19T09:34:55;1.38;;;0.90;;
31126;SDS011;17775;57.948;12.514;2023-11-19T09:37:21;1.60;;;0.93;;
31126;SDS011;17775;57.948;12.514;2023-11-19T09:39:48;1.60;;;1.00;;
31126;SDS011;17775;57.948;12.514;2023-11-19T09:42:14;1.08;;;0.85;;
31126;SDS011;17775;57.948;12.514;2023-11-19T09:44:41;1.33;;;0.80;;
31126;SDS011;17775;57.948;12.514;2023-11-19T09:47:09;0.85;;;0.77;;
31126;SDS011;17775;57.948;12.514;2023-11-19T09:49:36;0.63;;;0.60;;
31126;SDS011;17775;57.948;12.514;2023-11-19T09:52:03;1.52;;;0.80;;
31126;SDS011;17775;57.948;12.514;2023-11-19T09:54:30;1.60;;;1.05;;
31126;SDS011;17775;57.948;12.514;2023-11-19T09:56:57;1.48;;;0.80;;
31126;SDS011;17775;57.948;12.514;2023-11-19T09:59:29;1.05;;;0.73;;
31126;SDS011;17775;57.948;12.514;2023-11-19T10:01:56;0.93;;;0.82;;
31126;SDS011;17775;57.948;12.514;2023-11-19T10:04:23;1.02;;;0.70;;
31126;SDS011;17775;57.948;12.514;2023-11-19T10:06:51;1.23;;;0.75;;
31126;SDS011;17775;57.948;12.514;2023-11-19T10:09:18;1.40;;;0.77;;
31126;SDS011;17775;57.948;12.514;2023-11-19T10:11:45;1.30;;;0.90;;
31126;SDS011;17775;57.948;12.514;2023-11-19T10:14:12;0.82;;;0.80;;
31126;SDS011;17775;57.948;12.514;2023-11-19T10:16:39;0.90;;;0.63;;
31126;SDS011;17775;57.948;12.514;2023-11-19T10:19:07;1.10;;;0.82;;
31126;SDS011;17775;57.948;12.514;2023-11-19T10:21:33;0.90;;;0.70;;
31126;SDS011;17775;57.948;12.514;2023-11-19T10:24:00;1.25;;;0.90;;
31126;SDS011;17775;57.948;12.514;2023-11-19T10:26:27;1.00;;;0.70;;
31126;SDS011;17775;57.948;12.514;2023-11-19T10:28:55;0.90;;;0.68;;
31126;SDS011;17775;57.948;12.514;2023-11-19T10:31:21;0.73;;;0.60;;
31126;SDS011;17775;57.948;12.514;2023-11-19T10:33:52;1.05;;;0.75;;
31126;SDS011;17775;57.948;12.514;2023-11-19T10:36:19;0.80;;;0.70;;
31126;SDS011;17775;57.948;12.514;2023-11-19T10:38:56;0.63;;;0.60;;
31126;SDS011;17775;57.948;12.514;2023-11-19T10:41:29;0.70;;;0.57;;
31126;SDS011;17775;57.948;12.514;2023-11-19T10:43:57;1.20;;;0.88;;
31126;SDS011;17775;57.948;12.514;2023-11-19T10:46:36;0.57;;;0.57;;
31126;SDS011;17775;57.948;12.514;2023-11-19T10:49:02;1.15;;;0.70;;
31126;SDS011;17775;57.948;12.514;2023-11-19T10:51:29;1.05;;;0.80;;
31126;SDS011;17775;57.948;12.514;2023-11-19T10:53:56;1.00;;;0.73;;
31126;SDS011;17775;57.948;12.514;2023-11-19T10:56:25;0.90;;;0.70;;
31126;SDS011;17775;57.948;12.514;2023-11-19T10:58:56;0.75;;;0.65;;
31126;SDS011;17775;57.948;12.514;2023-11-19T11:01:26;1.38;;;0.93;;
31126;SDS011;17775;57.948;12.514;2023-11-19T11:03:53;1.15;;;0.80;;
31126;SDS011;17775;57.948;12.514;2023-11-19T11:06:22;1.15;;;0.85;;
31126;SDS011;17775;57.948;12.514;2023-11-19T11:08:49;0.68;;;0.60;;
31126;SDS011;17775;57.948;12.514;2023-11-19T11:11:17;1.25;;;0.82;;
31126;SDS011;17775;57.948;12.514;2023-11-19T11:13:47;0.82;;;0.70;;
31126;SDS011;17775;57.948;12.514;2023-11-19T11:16:15;0.68;;;0.50;;
31126;SDS011;17775;57.948;12.514;2023-11-19T11:18:45;1.00;;;0.70;;
31126;SDS011;17775;57.948;12.514;2023-11-19T11:21:17;0.80;;;0.70;;
31126;SDS011;17775;57.948;12.514;2023-11-19T11:26:25;0.63;;;0.50;;
31126;SDS011;17775;57.948;12.514;2023-11-19T11:29:00;1.17;;;0.70;;
31126;SDS011;17775;57.948;12.514;2023-11-19T11:36:41;0.70;;;0.60;;
31126;SDS011;17775;57.948;12.514;2023-11-19T11:39:11;1.02;;;0.75;;
31126;SDS011;17775;57.948;12.514;2023-11-19T11:41:37;1.00;;;0.85;;
31126;SDS011;17775;57.948;12.514;2023-11-19T11:44:04;1.10;;;0.73;;
31126;SDS011;17775;57.948;12.514;2023-11-19T11:49:04;0.88;;;0.70;;
31126;SDS011;17775;57.948;12.514;2023-11-19T11:56:40;0.80;;;0.70;;
31126;SDS011;17775;57.948;12.514;2023-11-19T11:59:18;0.95;;;0.57;;
31126;SDS011;17775;57.948;12.514;2023-11-19T12:02:00;0.65;;;0.60;;
31126;SDS011;17775;57.948;12.514;2023-11-19T12:04:27;0.70;;;0.70;;
31126;SDS011;17775;57.948;12.514;2023-11-19T12:07:13;1.10;;;1.00;;
31126;SDS011;17775;57.948;12.514;2023-11-19T12:09:40;0.88;;;0.70;;
31126;SDS011;17775;57.948;12.514;2023-11-19T12:12:11;1.00;;;0.75;;
31126;SDS011;17775;57.948;12.514;2023-11-19T12:20:00;1.20;;;0.85;;
31126;SDS011;17775;57.948;12.514;2023-11-19T12:22:26;1.40;;;0.98;;
31126;SDS011;17775;57.948;12.514;2023-11-19T12:24:56;1.63;;;1.27;;
31126;SDS011;17775;57.948;12.514;2023-11-19T12:27:22;1.08;;;0.80;;
31126;SDS011;17775;57.948;12.514;2023-11-19T12:29:49;0.93;;;0.70;;
31126;SDS011;17775;57.948;12.514;2023-11-19T12:32:16;1.48;;;1.00;;
31126;SDS011;17775;57.948;12.514;2023-11-19T12:34:42;1.40;;;0.82;;
31126;SDS011;17775;57.948;12.514;2023-11-19T12:37:10;1.40;;;1.00;;
31126;SDS011;17775;57.948;12.514;2023-11-19T12:39:37;1.00;;;0.85;;
31126;SDS011;17775;57.948;12.514;2023-11-19T12:42:04;1.00;;;0.90;;
31126;SDS011;17775;57.948;12.514;2023-11-19T12:44:31;1.67;;;0.60;;
31126;SDS011;17775;57.948;12.514;2023-11-19T12:49:28;1.00;;;0.73;;
31126;SDS011;17775;57.948;12.514;2023-11-19T12:51:54;1.15;;;0.80;;
31126;SDS011;17775;57.948;12.514;2023-11-19T12:54:31;1.48;;;0.80;;
31126;SDS011;17775;57.948;12.514;2023-11-19T12:56:58;1.30;;;0.98;;
31126;SDS011;17775;57.948;12.514;2023-11-19T12:59:25;1.50;;;0.90;;
31126;SDS011;17775;57.948;12.514;2023-11-19T13:01:53;0.98;;;0.80;;
31126;SDS011;17775;57.948;12.514;2023-11-19T13:04:20;1.10;;;0.80;;
31126;SDS011;17775;57.948;12.514;2023-11-19T13:06:49;1.38;;;0.95;;
31126;SDS011;17775;57.948;12.514;2023-11-19T13:09:22;1.08;;;0.80;;
31126;SDS011;17775;57.948;12.514;2023-11-19T13:11:50;1.00;;;0.60;;
31126;SDS011;17775;57.948;12.514;2023-11-19T13:14:17;0.95;;;0.75;;
31126;SDS011;17775;57.948;12.514;2023-11-19T13:16:43;0.90;;;0.80;;
31126;SDS011;17775;57.948;12.514;2023-11-19T13:19:12;1.00;;;0.75;;
31126;SDS011;17775;57.948;12.514;2023-11-19T13:21:38;0.90;;;0.80;;
31126;SDS011;17775;57.948;12.514;2023-11-19T13:24:06;1.00;;;0.80;;
31126;SDS011;17775;57.948;12.514;2023-11-19T13:26:33;0.80;;;0.60;;
31126;SDS011;17775;57.948;12.514;2023-11-19T13:28:59;0.90;;;0.70;;
31126;SDS011;17775;57.948;12.514;2023-11-19T13:31:26;1.20;;;0.70;;
31126;SDS011;17775;57.948;12.514;2023-11-19T13:33:52;0.90;;;0.70;;
31126;SDS011;17775;57.948;12.514;2023-11-19T13:36:19;1.20;;;0.82;;
31126;SDS011;17775;57.948;12.514;2023-11-19T13:38:46;0.80;;;0.77;;
31126;SDS011;17775;57.948;12.514;2023-11-19T13:41:13;1.50;;;1.00;;
31126;SDS011;17775;57.948;12.514;2023-11-19T13:43:40;1.08;;;0.77;;
31126;SDS011;17775;57.948;12.514;2023-11-19T13:46:06;0.90;;;0.70;;
31126;SDS011;17775;57.948;12.514;2023-11-19T13:48:36;0.70;;;0.60;;
31126;SDS011;17775;57.948;12.514;2023-11-19T13:51:03;1.20;;;0.70;;
31126;SDS011;17775;57.948;12.514;2023-11-19T13:53:30;0.77;;;0.70;;
31126;SDS011;17775;57.948;12.514;2023-11-19T13:55:56;0.70;;;0.60;;
31126;SDS011;17775;57.948;12.514;2023-11-19T13:58:23;1.20;;;0.75;;
31126;SDS011;17775;57.948;12.514;2023-11-19T14:00:49;0.70;;;0.60;;
31126;SDS011;17775;57.948;12.514;2023-11-19T14:03:17;0.88;;;0.80;;
31126;SDS011;17775;57.948;12.514;2023-11-19T14:05:43;0.60;;;0.60;;
31126;SDS011;17775;57.948;12.514;2023-11-19T14:08:10;0.70;;;0.60;;
31126;SDS011;17775;57.948;12.514;2023-11-19T14:10:50;0.60;;;0.55;;
31126;SDS011;17775;57.948;12.514;2023-11-19T14:13:17;0.70;;;0.60;;
31126;SDS011;17775;57.948;12.514;2023-11-19T14:15:43;1.13;;;0.70;;
31126;SDS011;17775;57.948;12.514;2023-11-19T14:18:13;0.70;;;0.65;;
31126;SDS011;17775;57.948;12.514;2023-11-19T14:20:40;0.90;;;0.50;;
31126;SDS011;17775;57.948;12.514;2023-11-19T14:23:06;0.80;;;0.60;;
31126;SDS011;17775;57.948;12.514;2023-11-19T14:25:33;0.88;;;0.52;;
31126;SDS011;17775;57.948;12.514;2023-11-19T14:28:00;0.88;;;0.57;;
31126;SDS011;17775;57.948;12.514;2023-11-19T14:30:28;1.13;;;0.70;;
31126;SDS011;17775;57.948;12.514;2023-11-19T14:32:55;1.02;;;0.70;;
31126;SDS011;17775;57.948;12.514;2023-11-19T14:35:21;1.33;;;0.70;;
31126;SDS011;17775;57.948;12.514;2023-11-19T14:37:48;1.52;;;0.80;;
31126;SDS011;17775;57.948;12.514;2023-11-19T14:40:15;1.33;;;0.90;;
31126;SDS011;17775;57.948;12.514;2023-11-19T14:42:44;1.05;;;0.85;;
31126;SDS011;17775;57.948;12.514;2023-11-19T14:45:11;0.82;;;0.60;;
31126;SDS011;17775;57.948;12.514;2023-11-19T14:47:38;1.10;;;0.60;;
31126;SDS011;17775;57.948;12.514;2023-11-19T14:50:06;0.85;;;0.65;;
31126;SDS011;17775;57.948;12.514;2023-11-19T14:52:34;0.60;;;0.50;;
31126;SDS011;17775;57.948;12.514;2023-11-19T14:55:00;1.23;;;0.70;;
31126;SDS011;17775;57.948;12.514;2023-11-19T14:57:27;1.35;;;0.70;;
31126;SDS011;17775;57.948;12.514;2023-11-19T14:59:54;0.65;;;0.52;;